Time;durP1;ratioP1;P1;durP2;ratioP2;P2;SDS_P1;SDS_P2;PMS_P1;PMS_P2;Temp;Humidity;BMP_temperature;BMP_pressure;BME280_temperature;BME280_humidity;BME280_pressure;Samples;Min_cycle;Max_cycle;Signal;HPM_P1;HPM_P2
2022/03/09 00:02:25;;;;;;;4.15;2.88;;;;;;;;;;5032678;28;20079;-74
2022/03/09 00:04:53;;;;;;;5.97;2.88;;;;;;;;;;5032870;28;20124;-71
2022/03/09 00:07:23;;;;;;;6.63;3.20;;;;;;;;;;5032725;28;20049;-68
2022/03/09 00:09:51;;;;;;;4.05;2.70;;;;;;;;;;5032866;28;20049;-71
2022/03/09 00:12:19;;;;;;;8.18;3.00;;;;;;;;;;5030827;28;20053;-72
2022/03/09 00:14:47;;;;;;;5.45;2.72;;;;;;;;;;5032704;28;20037;-71
2022/03/09 00:17:15;;;;;;;5.43;3.42;;;;;;;;;;5032670;28;20041;-74
2022/03/09 00:19:42;;;;;;;3.42;3.10;;;;;;;;;;5032478;28;20041;-74
2022/03/09 00:22:10;;;;;;;6.38;3.22;;;;;;;;;;5032700;28;20051;-71
2022/03/09 00:24:38;;;;;;;5.18;3.33;;;;;;;;;;5032443;28;20408;-68
2022/03/09 00:27:06;;;;;;;4.57;3.10;;;;;;;;;;5032589;28;20041;-68
2022/03/09 00:29:34;;;;;;;4.70;3.08;;;;;;;;;;5032332;28;20069;-72
2022/03/09 00:32:02;;;;;;;5.22;2.83;;;;;;;;;;5032259;28;20041;-71
2022/03/09 00:34:32;;;;;;;3.15;2.65;;;;;;;;;;5031080;28;20038;-74
2022/03/09 00:37:00;;;;;;;5.45;2.97;;;;;;;;;;5031951;28;20101;-69
2022/03/09 00:39:28;;;;;;;4.53;3.17;;;;;;;;;;5032420;28;20065;-72
2022/03/09 00:41:56;;;;;;;5.38;2.67;;;;;;;;;;5032244;28;20042;-68
2022/03/09 00:44:24;;;;;;;5.18;2.90;;;;;;;;;;5032134;28;20095;-68
2022/03/09 00:46:51;;;;;;;3.58;2.65;;;;;;;;;;5032134;28;20049;-68
2022/03/09 00:49:19;;;;;;;4.90;3.10;;;;;;;;;;5014300;28;20152;-73
2022/03/09 00:51:46;;;;;;;5.45;3.05;;;;;;;;;;5032431;28;20044;-71
2022/03/09 00:54:14;;;;;;;4.03;2.75;;;;;;;;;;5014283;28;20045;-68
2022/03/09 00:56:43;;;;;;;4.88;2.80;;;;;;;;;;5015545;28;20413;-73
2022/03/09 00:59:10;;;;;;;4.00;2.53;;;;;;;;;;5032343;28;20087;-68
2022/03/09 01:01:39;;;;;;;4.68;2.83;;;;;;;;;;5014789;28;20046;-72
2022/03/09 01:04:06;;;;;;;6.15;2.55;;;;;;;;;;5032224;28;20041;-70
2022/03/09 01:06:34;;;;;;;3.45;2.58;;;;;;;;;;5032093;28;20048;-73
2022/03/09 01:09:02;;;;;;;4.80;2.90;;;;;;;;;;5032077;28;20121;-74
2022/03/09 01:11:30;;;;;;;5.70;2.70;;;;;;;;;;5014622;28;20037;-73
2022/03/09 01:13:58;;;;;;;4.15;2.67;;;;;;;;;;5032256;28;20492;-70
2022/03/09 01:16:25;;;;;;;3.45;2.78;;;;;;;;;;5031853;28;20050;-73
2022/03/09 01:18:53;;;;;;;5.18;2.38;;;;;;;;;;5014534;28;20058;-70
2022/03/09 01:21:20;;;;;;;2.80;2.53;;;;;;;;;;5014564;28;20049;-68
2022/03/09 01:23:49;;;;;;;4.32;2.60;;;;;;;;;;5032045;28;20042;-72
2022/03/09 01:26:16;;;;;;;4.97;2.63;;;;;;;;;;5031750;28;20045;-72
2022/03/09 01:28:46;;;;;;;6.55;2.67;;;;;;;;;;5032163;28;20038;-71
2022/03/09 01:31:14;;;;;;;4.85;2.83;;;;;;;;;;5032098;28;20057;-73
2022/03/09 01:33:42;;;;;;;5.13;3.08;;;;;;;;;;5014442;28;20128;-73
2022/03/09 01:36:11;;;;;;;5.32;3.08;;;;;;;;;;5032342;28;20037;-74
2022/03/09 01:38:38;;;;;;;5.78;2.70;;;;;;;;;;5032167;28;20049;-74
2022/03/09 01:41:06;;;;;;;4.82;2.70;;;;;;;;;;5031739;28;20084;-68
2022/03/09 01:43:33;;;;;;;5.65;3.20;;;;;;;;;;5032158;28;20493;-72
2022/03/09 01:46:01;;;;;;;7.95;2.85;;;;;;;;;;5013962;28;20050;-71
2022/03/09 01:48:29;;;;;;;3.58;2.65;;;;;;;;;;5014181;28;20045;-70
2022/03/09 01:50:57;;;;;;;6.72;2.95;;;;;;;;;;5031933;28;20049;-68
2022/03/09 01:53:24;;;;;;;6.90;3.75;;;;;;;;;;5031737;28;20050;-73
2022/03/09 01:55:54;;;;;;;9.13;3.00;;;;;;;;;;5031603;28;20423;-72
2022/03/09 01:58:22;;;;;;;4.50;2.97;;;;;;;;;;5032197;28;20047;-68
2022/03/09 02:00:49;;;;;;;5.85;2.83;;;;;;;;;;5031603;28;20069;-71
2022/03/09 02:03:17;;;;;;;5.93;3.22;;;;;;;;;;5031813;28;20052;-69
2022/03/09 02:05:45;;;;;;;7.53;3.08;;;;;;;;;;5033989;28;20049;-72
2022/03/09 02:11:00;;;;;;;5.38;2.72;;;;;;;;;;5035346;28;20124;-68
2022/03/09 02:13:28;;;;;;;5.05;3.00;;;;;;;;;;5017195;28;20573;-70
2022/03/09 02:15:55;;;;;;;6.90;3.00;;;;;;;;;;5035343;28;20037;-68
2022/03/09 02:18:23;;;;;;;4.95;3.17;;;;;;;;;;5028118;28;20061;-69
2022/03/09 02:20:51;;;;;;;5.95;2.95;;;;;;;;;;5015702;28;20046;-70
2022/03/09 02:23:18;;;;;;;6.68;3.25;;;;;;;;;;4997735;28;20120;-71
2022/03/09 02:25:47;;;;;;;4.93;3.00;;;;;;;;;;5014967;28;20044;-73
2022/03/09 02:28:14;;;;;;;7.82;3.55;;;;;;;;;;5015104;28;20046;-72
2022/03/09 02:30:41;;;;;;;5.38;3.22;;;;;;;;;;4997208;28;20045;-71
2022/03/09 02:33:09;;;;;;;4.35;2.38;;;;;;;;;;5014998;28;20034;-70
2022/03/09 02:35:36;;;;;;;6.38;2.67;;;;;;;;;;5015155;28;20042;-69
2022/03/09 02:38:09;;;;;;;2.53;2.30;;;;;;;;;;5014590;28;20037;-68
2022/03/09 02:40:37;;;;;;;4.90;2.60;;;;;;;;;;5014853;28;20042;-73
2022/03/09 02:43:04;;;;;;;4.03;2.50;;;;;;;;;;4997327;28;20037;-70
2022/03/09 02:45:32;;;;;;;3.45;2.50;;;;;;;;;;5014898;28;20042;-73
2022/03/09 02:47:59;;;;;;;4.95;2.70;;;;;;;;;;4998565;28;20042;-72
2022/03/09 02:50:27;;;;;;;4.10;2.08;;;;;;;;;;4993048;28;20049;-67
2022/03/09 02:52:54;;;;;;;3.97;2.30;;;;;;;;;;4993954;28;20047;-69
2022/03/09 02:55:22;;;;;;;5.63;2.63;;;;;;;;;;4993523;28;20209;-70
2022/03/09 02:57:49;;;;;;;4.78;2.35;;;;;;;;;;4995229;28;20045;-72
2022/03/09 03:00:17;;;;;;;5.68;2.53;;;;;;;;;;4994057;28;20056;-68
2022/03/09 03:02:44;;;;;;;3.28;2.30;;;;;;;;;;4993676;28;20049;-70
2022/03/09 03:05:12;;;;;;;4.82;2.35;;;;;;;;;;4994846;28;20039;-70
2022/03/09 03:07:40;;;;;;;3.92;2.58;;;;;;;;;;4993534;28;20050;-71
2022/03/09 03:10:09;;;;;;;2.38;2.10;;;;;;;;;;4994574;28;20065;-72
2022/03/09 03:12:36;;;;;;;3.03;2.20;;;;;;;;;;4994682;28;20049;-73
2022/03/09 03:15:05;;;;;;;3.65;2.22;;;;;;;;;;4994506;28;20117;-68
2022/03/09 03:17:37;;;;;;;5.10;2.28;;;;;;;;;;4994173;28;20117;-70
2022/03/09 03:20:05;;;;;;;6.95;2.17;;;;;;;;;;5034108;28;20087;-68
2022/03/09 03:22:32;;;;;;;4.15;2.13;;;;;;;;;;5016317;28;20390;-73
2022/03/09 03:25:01;;;;;;;4.85;2.35;;;;;;;;;;5015787;28;20460;-71
2022/03/09 03:27:28;;;;;;;5.55;2.55;;;;;;;;;;5033830;28;20117;-68
2022/03/09 03:29:55;;;;;;;5.10;2.28;;;;;;;;;;5033733;28;20120;-68
2022/03/09 03:32:24;;;;;;;6.18;3.08;;;;;;;;;;5033966;28;20044;-67
2022/03/09 03:34:52;;;;;;;4.70;2.53;;;;;;;;;;5015939;28;20069;-73
2022/03/09 03:37:19;;;;;;;8.48;2.53;;;;;;;;;;5033351;28;20033;-73
2022/03/09 03:39:46;;;;;;;5.32;2.35;;;;;;;;;;5033825;28;20042;-70
2022/03/09 03:42:14;;;;;;;7.90;2.65;;;;;;;;;;5033613;28;20048;-68
2022/03/09 03:44:41;;;;;;;6.60;2.53;;;;;;;;;;5033544;28;20053;-71
2022/03/09 03:47:09;;;;;;;5.95;2.40;;;;;;;;;;5033690;28;20044;-70
2022/03/09 03:49:36;;;;;;;2.88;2.28;;;;;;;;;;5015275;28;20050;-70
2022/03/09 03:52:04;;;;;;;5.38;3.47;;;;;;;;;;5033701;28;20535;-70
2022/03/09 03:54:32;;;;;;;4.22;2.70;;;;;;;;;;5033177;28;20064;-73
2022/03/09 03:57:00;;;;;;;4.03;2.33;;;;;;;;;;5033205;28;20072;-73
2022/03/09 03:59:27;;;;;;;4.63;2.58;;;;;;;;;;5015854;28;20037;-67
2022/03/09 04:01:55;;;;;;;4.35;2.20;;;;;;;;;;5032730;28;20101;-72
2022/03/09 04:04:25;;;;;;;4.28;2.72;;;;;;;;;;5033245;28;20047;-72
2022/03/09 04:06:52;;;;;;;3.65;2.42;;;;;;;;;;5032964;28;20052;-72
2022/03/09 04:09:20;;;;;;;5.60;2.72;;;;;;;;;;5033241;28;20414;-68
2022/03/09 04:11:47;;;;;;;8.25;3.47;;;;;;;;;;5026611;28;20038;-70
2022/03/09 04:14:15;;;;;;;9.32;2.40;;;;;;;;;;5025781;28;20041;-67
2022/03/09 04:16:45;;;;;;;5.00;2.47;;;;;;;;;;5032687;28;20033;-67
2022/03/09 04:19:14;;;;;;;7.57;2.80;;;;;;;;;;5033156;28;20119;-70
2022/03/09 04:21:42;;;;;;;4.78;3.15;;;;;;;;;;5015122;28;20047;-68
2022/03/09 04:24:10;;;;;;;4.97;3.28;;;;;;;;;;5015154;28;20128;-69
2022/03/09 04:26:37;;;;;;;7.15;3.63;;;;;;;;;;5014879;28;20164;-67
2022/03/09 04:29:06;;;;;;;8.90;4.75;;;;;;;;;;5014866;28;20041;-72
2022/03/09 04:31:33;;;;;;;11.82;4.43;;;;;;;;;;5031827;28;20434;-71
2022/03/09 04:34:01;;;;;;;7.55;3.30;;;;;;;;;;5032561;28;20052;-72
2022/03/09 04:36:29;;;;;;;6.72;3.55;;;;;;;;;;5032014;28;20058;-67
2022/03/09 04:38:56;;;;;;;4.05;3.03;;;;;;;;;;5032206;28;20049;-73
2022/03/09 04:41:24;;;;;;;5.93;2.85;;;;;;;;;;5014608;28;20041;-73
2022/03/09 04:43:52;;;;;;;6.75;2.95;;;;;;;;;;5032537;28;20048;-69
2022/03/09 04:46:19;;;;;;;6.57;2.88;;;;;;;;;;5032380;28;20049;-68
2022/03/09 04:48:49;;;;;;;5.63;2.60;;;;;;;;;;5037465;28;20041;-71
2022/03/09 04:51:17;;;;;;;3.67;2.45;;;;;;;;;;5049904;28;20056;-71
2022/03/09 04:53:45;;;;;;;6.38;2.83;;;;;;;;;;5033849;28;20076;-67
2022/03/09 04:56:14;;;;;;;5.15;2.90;;;;;;;;;;5032764;28;20107;-68
2022/03/09 04:58:42;;;;;;;8.32;2.92;;;;;;;;;;5050477;28;20055;-72
2022/03/09 05:01:09;;;;;;;2.88;2.55;;;;;;;;;;5033703;28;20504;-67
2022/03/09 05:03:37;;;;;;;4.85;2.25;;;;;;;;;;5052301;28;20505;-68
2022/03/09 05:06:06;;;;;;;4.20;2.50;;;;;;;;;;5052184;28;20083;-71
2022/03/09 05:08:34;;;;;;;7.47;2.75;;;;;;;;;;5052369;28;20105;-73
2022/03/09 05:11:02;;;;;;;4.05;2.42;;;;;;;;;;5034758;28;20033;-67
2022/03/09 05:13:32;;;;;;;9.18;2.78;;;;;;;;;;5051918;28;20056;-73
2022/03/09 05:16:00;;;;;;;4.20;2.78;;;;;;;;;;5052523;28;20401;-67
2022/03/09 05:18:28;;;;;;;2.83;2.47;;;;;;;;;;5052100;28;20049;-73
2022/03/09 05:20:57;;;;;;;4.22;2.42;;;;;;;;;;5052017;28;20040;-68
2022/03/09 05:23:24;;;;;;;3.60;2.80;;;;;;;;;;5034507;28;20041;-68
2022/03/09 05:25:52;;;;;;;3.35;2.63;;;;;;;;;;5051748;28;20044;-74
2022/03/09 05:28:22;;;;;;;7.07;2.70;;;;;;;;;;5051921;28;20456;-68
2022/03/09 05:30:52;;;;;;;6.05;2.95;;;;;;;;;;5052057;28;20033;-73
2022/03/09 05:33:19;;;;;;;3.85;2.38;;;;;;;;;;5051860;28;20384;-72
2022/03/09 05:35:46;;;;;;;4.20;2.65;;;;;;;;;;5034159;28;20045;-74
2022/03/09 05:38:15;;;;;;;6.20;2.60;;;;;;;;;;5051755;28;20043;-69
2022/03/09 05:40:42;;;;;;;8.75;2.80;;;;;;;;;;5054244;28;20350;-72
2022/03/09 05:43:10;;;;;;;3.85;2.85;;;;;;;;;;5055727;28;20037;-68
2022/03/09 05:45:37;;;;;;;6.90;3.00;;;;;;;;;;5055550;28;20076;-72
2022/03/09 05:48:05;;;;;;;6.15;2.58;;;;;;;;;;5055977;28;20528;-74
2022/03/09 05:50:33;;;;;;;4.03;2.42;;;;;;;;;;5050705;28;20029;-72
2022/03/09 05:53:02;;;;;;;3.47;2.75;;;;;;;;;;5018615;28;20038;-68
2022/03/09 05:55:30;;;;;;;4.75;3.53;;;;;;;;;;5039086;28;20108;-69
2022/03/09 05:57:58;;;;;;;4.95;2.25;;;;;;;;;;5055277;28;20060;-67
2022/03/09 06:00:25;;;;;;;4.88;2.75;;;;;;;;;;5049980;28;20056;-68
2022/03/09 06:02:53;;;;;;;3.53;2.05;;;;;;;;;;5015791;28;20502;-71
2022/03/09 06:05:21;;;;;;;4.15;2.47;;;;;;;;;;5015608;28;20112;-72
2022/03/09 06:07:52;;;;;;;2.78;2.47;;;;;;;;;;5018824;28;20064;-71
2022/03/09 06:10:25;;;;;;;5.13;2.58;;;;;;;;;;5034824;28;20042;-68
2022/03/09 06:12:53;;;;;;;3.80;2.63;;;;;;;;;;5034635;28;20043;-67
2022/03/09 06:15:22;;;;;;;3.80;3.15;;;;;;;;;;5034684;28;20056;-72
2022/03/09 06:17:51;;;;;;;4.72;2.67;;;;;;;;;;5030860;28;20083;-72
2022/03/09 06:20:19;;;;;;;6.82;3.00;;;;;;;;;;5006615;28;20497;-73
2022/03/09 06:22:47;;;;;;;7.22;3.20;;;;;;;;;;5010444;28;20076;-69
2022/03/09 06:25:17;;;;;;;5.75;3.05;;;;;;;;;;5006986;28;20093;-69
2022/03/09 06:27:46;;;;;;;3.83;2.92;;;;;;;;;;5021112;28;20065;-73
2022/03/09 06:30:16;;;;;;;7.88;3.45;;;;;;;;;;4996335;28;20042;-69
2022/03/09 06:32:46;;;;;;;7.60;3.50;;;;;;;;;;5014697;28;20120;-74
2022/03/09 06:35:21;;;;;;;6.47;3.83;;;;;;;;;;4999549;28;20042;-71
2022/03/09 06:37:49;;;;;;;6.82;3.95;;;;;;;;;;5013042;28;20071;-74
2022/03/09 06:40:17;;;;;;;17.40;5.28;;;;;;;;;;5012416;28;20053;-75
2022/03/09 06:42:45;;;;;;;12.15;5.45;;;;;;;;;;4996222;28;20049;-75
2022/03/09 06:45:13;;;;;;;9.07;5.13;;;;;;;;;;4980311;28;20132;-74
2022/03/09 06:47:41;;;;;;;10.60;5.05;;;;;;;;;;4996802;28;20085;-74
2022/03/09 06:50:10;;;;;;;11.55;5.72;;;;;;;;;;5014099;28;20422;-70
2022/03/09 06:52:38;;;;;;;10.85;5.85;;;;;;;;;;5012966;28;20042;-74
2022/03/09 06:55:08;;;;;;;11.38;5.20;;;;;;;;;;4986443;28;20040;-69
2022/03/09 06:57:37;;;;;;;8.38;3.53;;;;;;;;;;4992361;28;20118;-70
2022/03/09 07:00:06;;;;;;;4.38;2.80;;;;;;;;;;4993142;28;20042;-70
2022/03/09 07:02:34;;;;;;;5.22;2.40;;;;;;;;;;4993427;28;20082;-73
2022/03/09 07:05:05;;;;;;;4.20;2.60;;;;;;;;;;4993642;28;20054;-73
2022/03/09 07:07:36;;;;;;;13.65;3.00;;;;;;;;;;4994730;28;20537;-74
2022/03/09 07:10:04;;;;;;;2.83;2.33;;;;;;;;;;4994177;28;20038;-74
2022/03/09 07:12:33;;;;;;;4.65;2.25;;;;;;;;;;4993322;28;20041;-69
2022/03/09 07:15:08;;;;;;;3.88;2.20;;;;;;;;;;4994458;28;20049;-74
2022/03/09 07:17:35;;;;;;;4.35;2.20;;;;;;;;;;5018143;23;20049;-70
2022/03/09 07:20:04;;;;;;;2.88;2.33;;;;;;;;;;5034143;28;20047;-74
2022/03/09 07:22:40;;;;;;;3.75;2.33;;;;;;;;;;5046880;28;20049;-74
2022/03/09 07:25:08;;;;;;;6.25;2.95;;;;;;;;;;5052665;28;20113;-70
2022/03/09 07:27:35;;;;;;;5.75;2.70;;;;;;;;;;5052492;28;20480;-70
2022/03/09 07:30:06;;;;;;;6.07;2.67;;;;;;;;;;5053475;28;20094;-73
2022/03/09 07:32:36;;;;;;;4.40;2.40;;;;;;;;;;5035299;28;20052;-73
2022/03/09 07:35:22;;;;;;;4.28;2.55;;;;;;;;;;5051431;28;20041;-74
2022/03/09 07:37:51;;;;;;;5.10;2.42;;;;;;;;;;5052975;28;20033;-73
2022/03/09 07:40:20;;;;;;;3.53;2.50;;;;;;;;;;5053084;28;20080;-70
2022/03/09 07:42:48;;;;;;;3.90;2.80;;;;;;;;;;5053040;28;20415;-71
2022/03/09 07:45:16;;;;;;;2.70;2.30;;;;;;;;;;5053165;28;20052;-70
2022/03/09 07:47:44;;;;;;;3.05;2.13;;;;;;;;;;5044931;28;20416;-70
2022/03/09 07:50:13;;;;;;;4.78;1.92;;;;;;;;;;5053015;28;20037;-74
2022/03/09 07:52:41;;;;;;;6.05;2.45;;;;;;;;;;5052629;28;20127;-70
2022/03/09 07:55:09;;;;;;;7.72;2.65;;;;;;;;;;5052714;28;20094;-73
2022/03/09 07:57:36;;;;;;;7.85;2.60;;;;;;;;;;5053197;28;20041;-73
2022/03/09 08:00:06;;;;;;;4.25;2.30;;;;;;;;;;5052848;28;20073;-73
2022/03/09 08:02:43;;;;;;;2.65;2.28;;;;;;;;;;5052634;28;20079;-74
2022/03/09 08:05:11;;;;;;;2.40;2.20;;;;;;;;;;5053227;28;20045;-70
2022/03/09 08:07:39;;;;;;;4.82;2.33;;;;;;;;;;5053211;28;20041;-69
2022/03/09 08:10:09;;;;;;;4.93;2.50;;;;;;;;;;5052897;28;20037;-70
2022/03/09 08:12:37;;;;;;;9.98;2.67;;;;;;;;;;5052663;28;20135;-70
2022/03/09 08:15:05;;;;;;;7.40;3.05;;;;;;;;;;5052715;28;20039;-73
2022/03/09 08:17:33;;;;;;;5.72;2.78;;;;;;;;;;5052973;28;20053;-73
2022/03/09 08:20:02;;;;;;;4.03;2.28;;;;;;;;;;5052848;28;20041;-72
2022/03/09 08:22:29;;;;;;;3.78;2.42;;;;;;;;;;5053006;28;20552;-69
2022/03/09 08:24:58;;;;;;;3.50;2.63;;;;;;;;;;5052750;28;20059;-70
2022/03/09 08:27:25;;;;;;;5.68;2.17;;;;;;;;;;5052462;28;20051;-70
2022/03/09 08:29:53;;;;;;;2.40;2.03;;;;;;;;;;5034900;28;20049;-69
2022/03/09 08:32:22;;;;;;;8.15;2.28;;;;;;;;;;5052266;28;20464;-73
2022/03/09 08:34:50;;;;;;;3.22;2.50;;;;;;;;;;5052859;28;20079;-73
2022/03/09 08:37:24;;;;;;;2.55;2.35;;;;;;;;;;5034959;28;20127;-73
2022/03/09 08:39:54;;;;;;;5.68;2.38;;;;;;;;;;5045930;28;20045;-69
2022/03/09 08:42:22;;;;;;;6.25;2.17;;;;;;;;;;5034187;28;20500;-73
2022/03/09 08:44:51;;;;;;;7.70;2.70;;;;;;;;;;5052239;28;20083;-70
2022/03/09 08:47:20;;;;;;;8.93;2.60;;;;;;;;;;5052180;28;20384;-73
2022/03/09 08:49:49;;;;;;;5.97;3.28;;;;;;;;;;5052255;28;20040;-70
2022/03/09 08:52:19;;;;;;;5.05;2.70;;;;;;;;;;5052495;28;20044;-70
2022/03/09 08:54:47;;;;;;;3.38;2.17;;;;;;;;;;5044025;28;20033;-70
2022/03/09 08:57:16;;;;;;;5.63;2.40;;;;;;;;;;5049844;28;20037;-70
2022/03/09 08:59:45;;;;;;;5.03;2.42;;;;;;;;;;5052758;28;20033;-70
2022/03/09 09:02:12;;;;;;;4.88;2.63;;;;;;;;;;5034218;28;20458;-74
2022/03/09 09:04:43;;;;;;;3.53;2.40;;;;;;;;;;5034875;28;20546;-70
2022/03/09 09:07:11;;;;;;;3.92;2.67;;;;;;;;;;5051589;28;20033;-74
2022/03/09 09:09:39;;;;;;;3.90;2.47;;;;;;;;;;5051911;28;20464;-70
2022/03/09 09:12:06;;;;;;;5.78;2.67;;;;;;;;;;5051916;28;20060;-70
2022/03/09 09:14:34;;;;;;;5.00;2.42;;;;;;;;;;5051844;28;20033;-71
2022/03/09 09:17:02;;;;;;;3.42;2.53;;;;;;;;;;5055405;28;20518;-73
2022/03/09 09:19:46;;;;;;;8.85;2.50;;;;;;;;;;5055952;28;20041;-70
2022/03/09 09:22:13;;;;;;;3.95;2.42;;;;;;;;;;5055063;28;20036;-71
2022/03/09 09:24:42;;;;;;;7.15;2.75;;;;;;;;;;5055544;28;20059;-70
2022/03/09 09:27:13;;;;;;;4.40;2.40;;;;;;;;;;5055704;28;20120;-74
2022/03/09 09:30:03;;;;;;;6.20;2.60;;;;;;;;;;5055776;28;20041;-70
2022/03/09 09:32:32;;;;;;;4.60;2.33;;;;;;;;;;5056055;28;20099;-73
2022/03/09 09:34:59;;;;;;;4.95;2.50;;;;;;;;;;5055903;28;20075;-74
2022/03/09 09:37:30;;;;;;;3.95;2.60;;;;;;;;;;5055834;28;20044;-70
2022/03/09 09:39:58;;;;;;;6.55;2.95;;;;;;;;;;5056104;28;20037;-74
2022/03/09 09:42:30;;;;;;;3.85;2.20;;;;;;;;;;5055689;28;20459;-74
2022/03/09 09:45:18;;;;;;;5.30;2.20;;;;;;;;;;5055312;28;20041;-74
2022/03/09 09:47:46;;;;;;;6.45;3.13;;;;;;;;;;5047486;28;20036;-74
2022/03/09 09:50:16;;;;;;;5.00;2.30;;;;;;;;;;5055425;28;20047;-73
2022/03/09 09:52:45;;;;;;;6.57;2.22;;;;;;;;;;5047127;28;20508;-67
2022/03/09 09:55:13;;;;;;;4.97;2.15;;;;;;;;;;5055398;28;20047;-72
2022/03/09 09:57:42;;;;;;;3.92;2.30;;;;;;;;;;5055143;28;20086;-70
2022/03/09 10:00:10;;;;;;;5.68;2.50;;;;;;;;;;5038040;28;20045;-74
2022/03/09 10:02:43;;;;;;;4.80;2.08;;;;;;;;;;5055310;28;20047;-73
2022/03/09 10:05:14;;;;;;;6.43;2.25;;;;;;;;;;5037824;28;20069;-70
2022/03/09 10:08:02;;;;;;;8.50;2.42;;;;;;;;;;5055575;28;20044;-73
2022/03/09 10:10:34;;;;;;;2.28;2.08;;;;;;;;;;5055365;28;20091;-74
2022/03/09 10:13:21;;;;;;;5.63;2.88;;;;;;;;;;5037503;28;20132;-70
2022/03/09 10:16:06;;;;;;;4.60;2.50;;;;;;;;;;5055425;28;20041;-70
2022/03/09 10:18:34;;;;;;;5.28;2.20;;;;;;;;;;5055259;28;20076;-70
2022/03/09 10:21:28;;;;;;;4.32;2.40;;;;;;;;;;5055250;28;20044;-74
2022/03/09 10:23:57;;;;;;;4.07;2.10;;;;;;;;;;5045630;28;20503;-68
2022/03/09 10:26:31;;;;;;;3.78;2.15;;;;;;;;;;5036677;28;20044;-68
2022/03/09 10:29:01;;;;;;;5.63;2.20;;;;;;;;;;5055031;28;20103;-68
2022/03/09 10:31:39;;;;;;;5.97;2.15;;;;;;;;;;5054806;28;20128;-67
2022/03/09 10:34:09;;;;;;;4.32;2.60;;;;;;;;;;5055046;28;20456;-74
2022/03/09 10:36:37;;;;;;;4.40;2.22;;;;;;;;;;5054640;28;20464;-74
2022/03/09 10:39:15;;;;;;;4.38;2.30;;;;;;;;;;5053904;28;20039;-74
2022/03/09 10:41:43;;;;;;;13.20;2.60;;;;;;;;;;5055170;28;20079;-70
2022/03/09 10:44:12;;;;;;;5.15;2.70;;;;;;;;;;5054646;28;20047;-70
2022/03/09 10:46:50;;;;;;;5.07;2.08;;;;;;;;;;5037235;28;20123;-74
2022/03/09 10:49:28;;;;;;;7.47;2.85;;;;;;;;;;5054821;28;20453;-74
2022/03/09 10:51:57;;;;;;;3.92;2.50;;;;;;;;;;5054322;28;20052;-73
2022/03/09 10:54:26;;;;;;;3.17;2.88;;;;;;;;;;5054547;28;20032;-70
2022/03/09 10:57:05;;;;;;;3.70;2.70;;;;;;;;;;5054287;28;20030;-70
2022/03/09 10:59:49;;;;;;;7.38;2.40;;;;;;;;;;5054364;28;20048;-70
2022/03/09 11:02:21;;;;;;;6.55;2.45;;;;;;;;;;5054174;28;20096;-73
2022/03/09 11:05:14;;;;;;;3.95;2.60;;;;;;;;;;5051286;28;20052;-70
2022/03/09 11:07:42;;;;;;;8.00;2.08;;;;;;;;;;5054436;28;20045;-70
2022/03/09 11:10:13;;;;;;;5.72;2.40;;;;;;;;;;5054237;28;20052;-73
2022/03/09 11:12:42;;;;;;;4.90;2.20;;;;;;;;;;5054132;28;20045;-74
2022/03/09 11:15:09;;;;;;;6.32;2.40;;;;;;;;;;5053774;28;20072;-70
2022/03/09 11:17:37;;;;;;;5.85;2.40;;;;;;;;;;5054142;28;20140;-73
2022/03/09 11:20:05;;;;;;;3.42;2.30;;;;;;;;;;5036236;28;20045;-73
2022/03/09 11:22:32;;;;;;;5.22;2.20;;;;;;;;;;5053855;28;20045;-73
2022/03/09 11:25:00;;;;;;;7.05;2.80;;;;;;;;;;5054149;28;20044;-73
2022/03/09 11:27:27;;;;;;;5.78;2.70;;;;;;;;;;5052652;28;20123;-70
2022/03/09 11:30:00;;;;;;;5.60;2.40;;;;;;;;;;5036504;28;20060;-70
2022/03/09 11:32:35;;;;;;;4.95;2.50;;;;;;;;;;5035874;28;20032;-69
2022/03/09 11:35:05;;;;;;;7.53;2.58;;;;;;;;;;5053362;28;20485;-70
2022/03/09 11:37:37;;;;;;;4.25;2.75;;;;;;;;;;5052712;28;20045;-74
2022/03/09 11:40:13;;;;;;;2.50;2.30;;;;;;;;;;5053477;28;20055;-70
2022/03/09 11:42:41;;;;;;;6.07;2.60;;;;;;;;;;5053430;28;20045;-70
2022/03/09 11:45:20;;;;;;;3.35;2.10;;;;;;;;;;5053620;28;20041;-74
2022/03/09 11:48:01;;;;;;;2.70;2.50;;;;;;;;;;5053507;28;20052;-70
2022/03/09 11:50:30;;;;;;;16.33;2.95;;;;;;;;;;5053009;28;20073;-74
2022/03/09 11:53:01;;;;;;;4.55;2.60;;;;;;;;;;5053612;28;20045;-70
2022/03/09 11:55:29;;;;;;;6.22;2.63;;;;;;;;;;5035436;28;20041;-74
2022/03/09 11:57:58;;;;;;;6.38;2.40;;;;;;;;;;5053353;28;20037;-74
2022/03/09 12:00:26;;;;;;;5.05;2.60;;;;;;;;;;5053319;28;20043;-69
2022/03/09 12:02:57;;;;;;;6.30;2.70;;;;;;;;;;5052547;28;20475;-69
2022/03/09 12:05:25;;;;;;;4.68;2.33;;;;;;;;;;5053242;28;20092;-73
2022/03/09 12:07:57;;;;;;;7.80;2.50;;;;;;;;;;5053205;28;20044;-70
2022/03/09 12:10:53;;;;;;;4.30;2.42;;;;;;;;;;5052768;28;20079;-73
2022/03/09 12:13:22;;;;;;;4.57;2.80;;;;;;;;;;5050387;28;20057;-74
2022/03/09 12:16:02;;;;;;;3.45;2.42;;;;;;;;;;5052457;28;20036;-70
2022/03/09 12:18:35;;;;;;;5.32;2.67;;;;;;;;;;5052374;28;20053;-74
2022/03/09 12:21:05;;;;;;;4.07;2.60;;;;;;;;;;5049931;28;20049;-73
2022/03/09 12:23:53;;;;;;;6.35;2.40;;;;;;;;;;5052687;28;20041;-74
2022/03/09 12:26:39;;;;;;;6.07;2.65;;;;;;;;;;5034362;28;20124;-70
2022/03/09 12:29:20;;;;;;;2.65;2.30;;;;;;;;;;5052551;28;20037;-73
2022/03/09 12:32:07;;;;;;;4.03;2.70;;;;;;;;;;5052678;28;20197;-70
2022/03/09 12:34:40;;;;;;;5.47;2.65;;;;;;;;;;5052712;28;20037;-74
2022/03/09 12:37:13;;;;;;;9.45;3.15;;;;;;;;;;5034690;28;20068;-73
2022/03/09 12:39:47;;;;;;;4.68;2.97;;;;;;;;;;5052406;28;20069;-73
2022/03/09 12:42:17;;;;;;;5.95;2.70;;;;;;;;;;5052351;28;20083;-70
2022/03/09 12:44:45;;;;;;;3.25;2.55;;;;;;;;;;5052394;28;20053;-70
2022/03/09 12:47:13;;;;;;;3.40;2.50;;;;;;;;;;5052421;28;20059;-73
2022/03/09 12:49:43;;;;;;;8.55;2.70;;;;;;;;;;5052443;28;20055;-70
2022/03/09 12:52:16;;;;;;;3.70;2.65;;;;;;;;;;5052349;28;20041;-74
2022/03/09 12:54:49;;;;;;;6.65;2.42;;;;;;;;;;5034352;28;20033;-74
2022/03/09 12:57:21;;;;;;;5.22;2.80;;;;;;;;;;5034627;28;20112;-74
2022/03/09 13:00:13;;;;;;;4.78;2.67;;;;;;;;;;5044848;28;20743;-74
2022/03/09 13:02:49;;;;;;;7.70;2.92;;;;;;;;;;5034502;28;20125;-74
2022/03/09 13:05:26;;;;;;;13.52;3.25;;;;;;;;;;5035348;28;20068;-73
2022/03/09 13:08:21;;;;;;;5.53;3.00;;;;;;;;;;5052269;28;20488;-74
2022/03/09 13:10:52;;;;;;;7.97;2.65;;;;;;;;;;5025232;28;20140;-74
2022/03/09 13:13:28;;;;;;;6.78;2.60;;;;;;;;;;5052779;28;20506;-73
2022/03/09 13:15:59;;;;;;;5.60;2.83;;;;;;;;;;5033799;28;20548;-73
2022/03/09 13:18:30;;;;;;;4.47;2.50;;;;;;;;;;5052115;28;20447;-71
2022/03/09 13:20:58;;;;;;;5.68;2.40;;;;;;;;;;5034412;28;20432;-71
2022/03/09 13:23:27;;;;;;;6.53;2.70;;;;;;;;;;5052277;28;20421;-72
2022/03/09 13:25:56;;;;;;;5.50;2.90;;;;;;;;;;5052196;28;20508;-72
2022/03/09 13:28:28;;;;;;;3.95;2.47;;;;;;;;;;5034607;28;20517;-70
2022/03/09 13:30:56;;;;;;;4.78;2.78;;;;;;;;;;5052063;28;20412;-71
2022/03/09 13:33:25;;;;;;;4.13;2.30;;;;;;;;;;5052419;28;20090;-72
2022/03/09 13:35:53;;;;;;;6.47;2.80;;;;;;;;;;5052111;28;20438;-72
2022/03/09 13:38:23;;;;;;;3.28;2.75;;;;;;;;;;5051506;28;20599;-70
2022/03/09 13:40:52;;;;;;;4.97;2.60;;;;;;;;;;5051989;28;20518;-68
2022/03/09 13:43:19;;;;;;;5.13;2.30;;;;;;;;;;5032462;28;20063;-68
2022/03/09 13:45:50;;;;;;;6.03;2.33;;;;;;;;;;5048126;28;20116;-68
2022/03/09 13:48:23;;;;;;;6.95;2.70;;;;;;;;;;5051774;28;20085;-68
2022/03/09 13:50:59;;;;;;;6.20;2.80;;;;;;;;;;5043394;28;20068;-72
2022/03/09 13:53:34;;;;;;;6.72;2.15;;;;;;;;;;5048305;28;20579;-69
2022/03/09 13:56:03;;;;;;;5.57;2.75;;;;;;;;;;5050796;28;20112;-69
2022/03/09 13:58:38;;;;;;;7.30;2.45;;;;;;;;;;5051210;28;20045;-74
2022/03/09 14:01:10;;;;;;;7.57;2.08;;;;;;;;;;5051746;28;20033;-73
2022/03/09 14:03:40;;;;;;;4.28;2.17;;;;;;;;;;5035052;28;20041;-72
2022/03/09 14:06:24;;;;;;;4.80;2.40;;;;;;;;;;5035024;28;20053;-73
2022/03/09 14:08:54;;;;;;;5.68;2.47;;;;;;;;;;5035075;28;20155;-71
2022/03/09 14:11:28;;;;;;;3.38;2.45;;;;;;;;;;5034817;28;20385;-72
2022/03/09 14:13:56;;;;;;;5.03;2.80;;;;;;;;;;5034349;28;20148;-68
2022/03/09 14:16:46;;;;;;;5.00;2.30;;;;;;;;;;5017221;28;20105;-69
2022/03/09 14:19:18;;;;;;;8.00;2.20;;;;;;;;;;5034408;28;20050;-68
2022/03/09 14:21:47;;;;;;;2.05;1.77;;;;;;;;;;5016778;28;20053;-72
2022/03/09 14:24:14;;;;;;;3.95;2.65;;;;;;;;;;5016777;28;20531;-72
2022/03/09 14:26:48;;;;;;;3.67;2.30;;;;;;;;;;5034501;28;20100;-68
2022/03/09 14:29:16;;;;;;;2.53;2.10;;;;;;;;;;5042018;28;20053;-68
2022/03/09 14:31:49;;;;;;;5.03;2.13;;;;;;;;;;5051623;28;20449;-71
2022/03/09 14:34:19;;;;;;;5.03;2.53;;;;;;;;;;5016608;28;20504;-71
2022/03/09 14:36:52;;;;;;;8.05;2.80;;;;;;;;;;5034152;28;20073;-71
2022/03/09 14:39:25;;;;;;;7.15;2.20;;;;;;;;;;5033675;28;20041;-67
2022/03/09 14:41:53;;;;;;;2.70;2.30;;;;;;;;;;5016237;28;20124;-70
2022/03/09 14:44:21;;;;;;;3.55;2.00;;;;;;;;;;5050388;28;20567;-69
2022/03/09 14:46:49;;;;;;;14.25;8.52;;;;;;;;;;5054310;28;20048;-70
2022/03/09 14:49:18;;;;;;;7.78;2.60;;;;;;;;;;5035469;28;20124;-68
2022/03/09 14:51:47;;;;;;;6.28;2.63;;;;;;;;;;5029623;28;20418;-72
2022/03/09 14:54:15;;;;;;;3.40;2.30;;;;;;;;;;5029703;28;20419;-71
2022/03/09 14:56:43;;;;;;;3.55;2.40;;;;;;;;;;5051104;28;20033;-69
2022/03/09 14:59:12;;;;;;;3.42;2.33;;;;;;;;;;5042458;28;20040;-71
2022/03/09 15:01:41;;;;;;;4.30;2.22;;;;;;;;;;5037142;28;20041;-70
2022/03/09 15:04:12;;;;;;;3.60;2.22;;;;;;;;;;5041696;28;20128;-69